Air Navigation Services of Czech Republic
Airport: LKPR Updated:  22.11.2017 10:36:05  UTC
 METAR LKPR 22.11. 10:30 ...
METAR LKPR 221030Z 24011KT 9999 BKN025 08/04 Q1012 NOSIG RMK REG QNH 1009=
 TAF LKPR 22.11. 05:00 ...
TAF LKPR 220500Z 2206/2312 24014KT CAVOK      TEMPO 2206/2215 26016G26KT      BECMG 2221/2223 VRB02KT      TEMPO 2307/2312 9999 SCT030=